Time;durP1;ratioP1;P1;durP2;ratioP2;P2;SDS_P1;SDS_P2;PMS_P1;PMS_P2;Temp;Humidity;BMP_temperature;BMP_pressure;BME280_temperature;BME280_humidity;BME280_pressure;Samples;Min_cycle;Max_cycle;Signal;HPM_P1;HPM_P2
2022/10/11 00:01:40;;;;;;;;;;;;;;;-142.75;100.00;78263.53;5072371;28;19908;-66
2022/10/11 00:04:05;;;;;;;;;;;;;;;-142.75;100.00;78267.47;5072200;28;19924;-66
2022/10/11 00:06:30;;;;;;;;;;;;;;;-142.75;100.00;78277.31;5072175;28;20006;-66
2022/10/11 00:08:55;;;;;;;;;;;;;;;-142.75;100.00;78279.28;5072126;28;19920;-65
2022/10/11 00:11:20;;;;;;;;;;;;;;;-142.75;100.00;78302.94;5072299;28;20003;-66
2022/10/11 00:13:46;;;;;;;;;;;;;;;-142.75;100.00;78318.69;5072130;28;20277;-66
2022/10/11 00:16:13;;;;;;;;;;;;;;;-142.75;100.00;78342.31;5072115;28;19917;-65
2022/10/11 00:18:38;;;;;;;;;;;;;;;-142.75;100.00;78367.91;5071930;28;19912;-65
2022/10/11 00:21:04;;;;;;;;;;;;;;;-142.75;100.00;78369.88;5072221;28;20329;-65
2022/10/11 00:23:30;;;;;;;;;;;;;;;-142.75;100.00;78377.75;5072068;28;19939;-65
2022/10/11 00:25:56;;;;;;;;;;;;;;;-142.75;100.00;78389.56;5072180;28;19912;-65
2022/10/11 00:28:21;;;;;;;;;;;;;;;-142.75;100.00;78389.56;5071510;28;19913;-65
2022/10/11 00:30:47;;;;;;;;;;;;;;;-142.75;100.00;78385.63;5072459;28;20299;-65
2022/10/11 00:33:13;;;;;;;;;;;;;;;-142.75;100.00;78383.66;5072030;28;19912;-65
2022/10/11 00:35:39;;;;;;;;;;;;;;;-142.75;100.00;78387.59;5071961;28;19913;-65
2022/10/11 00:38:04;;;;;;;;;;;;;;;-142.75;100.00;78385.63;5071708;28;19913;-65
2022/10/11 00:40:29;;;;;;;;;;;;;;;-142.75;100.00;78385.63;5072030;28;19912;-65
2022/10/11 00:42:54;;;;;;;;;;;;;;;-142.75;100.00;78387.59;5071864;28;19936;-65
2022/10/11 00:45:26;;;;;;;;;;;;;;;-142.75;100.00;78385.63;5071666;28;20370;-65
2022/10/11 00:47:55;;;;;;;;;;;;;;;-142.75;100.00;78381.69;5071653;28;20405;-65
2022/10/11 00:50:21;;;;;;;;;;;;;;;-142.75;100.00;78377.75;5071905;28;19919;-65
2022/10/11 00:52:52;;;;;;;;;;;;;;;-142.75;100.00;78381.69;5071829;28;19913;-65
2022/10/11 00:55:19;;;;;;;;;;;;;;;-142.75;100.00;78377.75;5071829;28;20050;-65
2022/10/11 00:57:46;;;;;;;;;;;;;;;-142.75;100.00;78369.88;5071433;28;19921;-65
2022/10/11 01:00:13;;;;;;;;;;;;;;;-142.75;100.00;78365.94;5071829;28;19912;-65
2022/10/11 01:02:39;;;;;;;;;;;;;;;-142.75;100.00;78354.13;5071582;28;19916;-65
2022/10/11 01:05:05;;;;;;;;;;;;;;;-142.75;100.00;78350.19;5071814;28;20097;-65
2022/10/11 01:07:31;;;;;;;;;;;;;;;-142.75;100.00;78352.16;5071257;28;20390;-66
2022/10/11 01:09:56;;;;;;;;;;;;;;;-142.75;100.00;78377.75;5053699;28;19919;-65
2022/10/11 01:12:22;;;;;;;;;;;;;;;-142.75;100.00;78365.94;5071687;28;19982;-66
2022/10/11 01:14:55;;;;;;;;;;;;;;;-142.75;100.00;78362.00;5071677;28;19966;-66
2022/10/11 01:17:23;;;;;;;;;;;;;;;-142.75;100.00;78363.97;5071318;28;19917;-65
2022/10/11 01:19:59;;;;;;;;;;;;;;;-142.75;100.00;78358.06;5071644;28;19912;-66
2022/10/11 01:22:34;;;;;;;;;;;;;;;-142.75;100.00;78362.00;5071476;28;20427;-65
2022/10/11 01:25:20;;;;;;;;;;;;;;;-142.75;100.00;78360.03;5071613;28;19935;-66
2022/10/11 01:28:00;;;;;;;;;;;;;;;-142.75;100.00;78350.19;5071057;28;20014;-65
2022/10/11 01:30:28;;;;;;;;;;;;;;;-142.75;100.00;78350.19;5050258;28;19917;-65
2022/10/11 01:32:55;;;;;;;;;;;;;;;-142.75;100.00;78350.19;5060725;28;19921;-66
2022/10/11 01:35:27;;;;;;;;;;;;;;;-142.75;100.00;78352.16;5070183;28;20438;-65
2022/10/11 01:38:01;;;;;;;;;;;;;;;-142.75;100.00;78350.19;5066276;28;19921;-65
2022/10/11 01:40:47;;;;;;;;;;;;;;;-142.75;100.00;78350.19;5064944;28;20006;-66
2022/10/11 01:43:13;;;;;;;;;;;;;;;-142.75;100.00;78365.94;5065955;28;19921;-65
2022/10/11 01:45:40;;;;;;;;;;;;;;;-142.75;100.00;78365.94;5055080;28;19924;-66
2022/10/11 01:48:06;;;;;;;;;;;;;;;-142.75;100.00;78373.81;5066960;28;19924;-66
2022/10/11 01:50:33;;;;;;;;;;;;;;;-142.75;100.00;78369.88;5072114;28;19999;-65
2022/10/11 01:53:04;;;;;;;;;;;;;;;-142.75;100.00;78373.81;5072813;28;20041;-65
2022/10/11 01:55:37;;;;;;;;;;;;;;;-142.75;100.00;78385.63;5070000;28;19916;-65
2022/10/11 01:58:09;;;;;;;;;;;;;;;-142.75;100.00;78385.63;5070174;28;19959;-65
2022/10/11 02:00:43;;;;;;;;;;;;;;;-142.75;100.00;78389.56;5069289;28;19920;-65
2022/10/11 02:03:32;;;;;;;;;;;;;;;-142.75;100.00;78387.59;5067173;28;19916;-65
2022/10/11 02:06:08;;;;;;;;;;;;;;;-142.75;100.00;78397.44;5072077;28;19928;-65
2022/10/11 02:08:33;;;;;;;;;;;;;;;-142.75;100.00;78403.38;5071021;28;19966;-65
2022/10/11 02:11:03;;;;;;;;;;;;;;;-142.75;100.00;78401.38;5065743;28;19920;-65
2022/10/11 02:13:31;;;;;;;;;;;;;;;-142.75;100.00;78397.44;5065955;28;20567;-65
2022/10/11 02:15:57;;;;;;;;;;;;;;;-142.75;100.00;78395.47;5066829;28;19978;-65
2022/10/11 02:18:25;;;;;;;;;;;;;;;-142.75;100.00;78395.47;5064934;28;19923;-65
2022/10/11 02:20:52;;;;;;;;;;;;;;;-142.75;100.00;78395.47;5065651;28;20870;-65
2022/10/11 02:23:24;;;;;;;;;;;;;;;-142.75;100.00;78393.50;5064120;28;20378;-65
2022/10/11 02:25:51;;;;;;;;;;;;;;;-142.75;100.00;78397.44;5067205;28;19954;-65
2022/10/11 02:28:20;;;;;;;;;;;;;;;-142.75;100.00;78385.63;5065409;28;19916;-65
2022/10/11 02:30:46;;;;;;;;;;;;;;;-142.75;100.00;78385.63;5065549;28;19931;-65
2022/10/11 02:33:13;;;;;;;;;;;;;;;-142.75;100.00;78383.66;5067986;28;19923;-65
2022/10/11 02:35:41;;;;;;;;;;;;;;;-142.75;100.00;78373.81;5071998;28;19913;-66
2022/10/11 02:38:33;;;;;;;;;;;;;;;-142.75;100.00;78373.81;5054303;28;19913;-66
2022/10/11 02:41:04;;;;;;;;;;;;;;;-142.75;100.00;78385.63;5069444;28;19912;-65
2022/10/11 02:43:35;;;;;;;;;;;;;;;-142.75;100.00;78387.59;5071546;28;19913;-65
2022/10/11 02:46:01;;;;;;;;;;;;;;;-142.75;100.00;78383.66;5072299;28;19912;-66
2022/10/11 02:48:28;;;;;;;;;;;;;;;-142.75;100.00;78371.84;5071978;28;19916;-65
2022/10/11 02:50:54;;;;;;;;;;;;;;;-142.75;100.00;78363.97;5072067;28;20301;-65
2022/10/11 02:53:20;;;;;;;;;;;;;;;-142.75;100.00;78381.69;5069964;28;19995;-65
2022/10/11 02:55:46;;;;;;;;;;;;;;;-142.75;100.00;78377.75;5070173;28;20098;-65
2022/10/11 02:58:12;;;;;;;;;;;;;;;-142.75;100.00;78375.78;5070446;28;19913;-66
2022/10/11 03:00:37;;;;;;;;;;;;;;;-142.75;100.00;78377.75;5066448;28;19927;-66
2022/10/11 03:03:02;;;;;;;;;;;;;;;-142.75;100.00;78381.69;5066133;28;19916;-66
2022/10/11 03:05:27;;;;;;;;;;;;;;;-142.75;100.00;78371.84;5069073;28;19924;-65
2022/10/11 03:07:53;;;;;;;;;;;;;;;-142.75;100.00;78367.91;5071695;28;19970;-65
2022/10/11 03:10:18;;;;;;;;;;;;;;;-142.75;100.00;78377.75;5071953;28;19944;-66
2022/10/11 03:12:43;;;;;;;;;;;;;;;-142.75;100.00;78377.75;5071575;28;19920;-66
2022/10/11 03:15:08;;;;;;;;;;;;;;;-142.75;100.00;78385.63;5069049;28;19917;-65
2022/10/11 03:17:34;;;;;;;;;;;;;;;-142.75;100.00;78383.66;5070382;28;19974;-65
2022/10/11 03:19:59;;;;;;;;;;;;;;;-142.75;100.00;78391.53;5068688;28;19920;-65
2022/10/11 03:22:24;;;;;;;;;;;;;;;-142.75;100.00;78397.44;5068709;28;19931;-65
2022/10/11 03:24:49;;;;;;;;;;;;;;;-142.75;100.00;78407.31;5068216;28;20002;-66
2022/10/11 03:27:14;;;;;;;;;;;;;;;-142.75;100.00;78401.38;5065443;28;19917;-65
2022/10/11 03:29:40;;;;;;;;;;;;;;;-142.75;100.00;78399.44;5060854;28;19916;-66
2022/10/11 03:32:05;;;;;;;;;;;;;;;-142.75;100.00;78401.38;5050290;28;19956;-65
2022/10/11 03:34:30;;;;;;;;;;;;;;;-142.75;100.00;78405.34;5065176;28;20629;-66
2022/10/11 03:36:55;;;;;;;;;;;;;;;-142.75;100.00;78399.44;5063256;28;19968;-66
2022/10/11 03:39:21;;;;;;;;;;;;;;;-142.75;100.00;78405.34;5064776;28;19916;-65
2022/10/11 03:41:46;;;;;;;;;;;;;;;-142.75;100.00;78417.16;5064061;28;19916;-65
2022/10/11 03:44:11;;;;;;;;;;;;;;;-142.75;100.00;78407.31;5045278;28;20039;-65
2022/10/11 03:46:36;;;;;;;;;;;;;;;-142.75;100.00;78421.09;5064387;28;19968;-65
2022/10/11 03:49:02;;;;;;;;;;;;;;;-142.75;100.00;78423.06;5063623;28;19966;-68
2022/10/11 03:51:27;;;;;;;;;;;;;;;-142.75;100.00;78427.00;5064071;28;19925;-65
2022/10/11 03:53:52;;;;;;;;;;;;;;;-142.75;100.00;78425.03;5065276;28;19924;-65
2022/10/11 03:56:17;;;;;;;;;;;;;;;-142.75;100.00;78436.84;5064796;28;19920;-65
2022/10/11 03:58:43;;;;;;;;;;;;;;;-142.75;100.00;78436.84;5064557;28;20059;-65
2022/10/11 04:01:08;;;;;;;;;;;;;;;-142.75;100.00;78436.84;5064618;28;19956;-65
2022/10/11 04:03:33;;;;;;;;;;;;;;;-142.75;100.00;78436.84;5088746;23;20287;-66
2022/10/11 04:05:59;;;;;;;;;;;;;;;-142.75;100.00;78444.72;5072957;28;19920;-67
2022/10/11 04:08:24;;;;;;;;;;;;;;;-142.75;100.00;78456.53;5072804;28;19919;-66
2022/10/11 04:10:50;;;;;;;;;;;;;;;-142.75;100.00;78476.22;5092550;28;19919;-69
2022/10/11 04:13:15;;;;;;;;;;;;;;;-142.75;100.00;78460.47;5092432;28;20009;-68
2022/10/11 04:15:40;;;;;;;;;;;;;;;-142.75;100.00;78454.56;5074181;28;19941;-68
2022/10/11 04:18:06;;;;;;;;;;;;;;;-142.75;100.00;78462.44;5092042;28;20288;-68
2022/10/11 04:20:31;;;;;;;;;;;;;;;-142.75;100.00;78464.41;5092455;28;19912;-68
2022/10/11 04:22:56;;;;;;;;;;;;;;;-142.75;100.00;78458.50;5092400;28;20014;-67
2022/10/11 04:25:22;;;;;;;;;;;;;;;-142.75;100.00;78458.50;5092325;28;20301;-68
2022/10/11 04:27:47;;;;;;;;;;;;;;;-142.75;100.00;78460.47;5092068;28;19912;-68
2022/10/11 04:30:13;;;;;;;;;;;;;;;-142.75;100.00;78460.47;5074181;28;19918;-68
2022/10/11 04:32:38;;;;;;;;;;;;;;;-142.75;100.00;78462.44;5074019;28;20377;-68
2022/10/11 04:35:03;;;;;;;;;;;;;;;-142.75;100.00;78462.44;5092277;28;19912;-68
2022/10/11 04:37:28;;;;;;;;;;;;;;;-142.75;100.00;78462.44;5091760;28;20297;-67
2022/10/11 04:39:54;;;;;;;;;;;;;;;-142.75;100.00;78456.53;5092235;28;19912;-70
2022/10/11 04:42:19;;;;;;;;;;;;;;;-142.75;100.00;78456.53;5074120;28;19912;-68
2022/10/11 04:44:45;;;;;;;;;;;;;;;-142.75;100.00;78474.25;5092079;28;20301;-68
2022/10/11 04:47:10;;;;;;;;;;;;;;;-142.75;100.00;78493.97;5073664;28;19919;-69
2022/10/11 04:49:36;;;;;;;;;;;;;;;-142.75;100.00;78499.88;5092235;28;20488;-67
2022/10/11 04:52:01;;;;;;;;;;;;;;;-142.75;100.00;78503.81;5074302;28;19912;-68
2022/10/11 04:54:26;;;;;;;;;;;;;;;-142.75;100.00;78511.69;5092045;28;19959;-68
2022/10/11 04:56:51;;;;;;;;;;;;;;;-142.75;100.00;78507.75;5091703;28;20000;-68
2022/10/11 04:59:16;;;;;;;;;;;;;;;-142.75;100.00;78507.75;5091940;28;19966;-69
2022/10/11 05:01:42;;;;;;;;;;;;;;;-142.75;100.00;78503.81;5073787;28;20006;-68
2022/10/11 05:04:07;;;;;;;;;;;;;;;-142.75;100.00;78501.84;5091791;28;19915;-68
2022/10/11 05:06:32;;;;;;;;;;;;;;;-142.75;100.00;78499.88;5091620;28;19923;-68
2022/10/11 05:08:57;;;;;;;;;;;;;;;-142.75;100.00;78501.84;5091758;28;19958;-68
2022/10/11 05:11:23;;;;;;;;;;;;;;;-142.75;100.00;78503.81;5091948;28;20449;-68
2022/10/11 05:13:48;;;;;;;;;;;;;;;-142.75;100.00;78495.94;5073731;28;19919;-68
2022/10/11 05:16:14;;;;;;;;;;;;;;;-142.75;100.00;78486.06;5076810;28;19961;-68
2022/10/11 05:18:39;;;;;;;;;;;;;;;-142.75;100.00;78490.00;5095307;28;19912;-69
2022/10/11 05:21:06;;;;;;;;;;;;;;;-142.75;100.00;78490.00;5095837;28;20019;-68
2022/10/11 05:23:32;;;;;;;;;;;;;;;-142.75;100.00;78482.13;5095527;28;19916;-68
2022/10/11 05:25:57;;;;;;;;;;;;;;;-142.75;100.00;78486.06;5096139;28;19920;-68
2022/10/11 05:28:23;;;;;;;;;;;;;;;-142.75;100.00;78482.13;5095326;28;19919;-67
2022/10/11 05:30:48;;;;;;;;;;;;;;;-142.75;100.00;78482.13;5095613;28;19999;-68
2022/10/11 05:33:13;;;;;;;;;;;;;;;-142.75;100.00;78484.09;5077372;28;19916;-68
2022/10/11 05:35:39;;;;;;;;;;;;;;;-142.75;100.00;78484.09;5095423;28;20495;-68
2022/10/11 05:38:04;;;;;;;;;;;;;;;-142.75;100.00;78488.03;5095151;28;19912;-68
2022/10/11 05:40:29;;;;;;;;;;;;;;;-142.75;100.00;78488.03;5095335;28;19918;-68
2022/10/11 05:42:54;;;;;;;;;;;;;;;-142.75;100.00;78480.16;5095232;28;19912;-68
2022/10/11 05:45:19;;;;;;;;;;;;;;;-142.75;100.00;78484.09;5094998;28;20341;-68
2022/10/11 05:47:45;;;;;;;;;;;;;;;-142.75;100.00;78480.16;5094921;28;19912;-69
2022/10/11 05:50:10;;;;;;;;;;;;;;;-142.75;100.00;78476.22;5076917;28;19966;-68
2022/10/11 05:52:36;;;;;;;;;;;;;;;-142.75;100.00;78476.22;5095123;28;19912;-68
2022/10/11 05:55:02;;;;;;;;;;;;;;;-142.75;100.00;78480.16;5094943;28;20286;-70
2022/10/11 05:57:27;;;;;;;;;;;;;;;-142.75;100.00;78476.22;5094624;28;20283;-70
2022/10/11 05:59:52;;;;;;;;;;;;;;;-142.75;100.00;78480.16;5094808;28;19919;-68
2022/10/11 06:02:17;;;;;;;;;;;;;;;-142.75;100.00;78480.16;5095021;28;20072;-68
2022/10/11 06:04:43;;;;;;;;;;;;;;;-142.75;100.00;78480.16;5076638;28;19978;-68
2022/10/11 06:07:08;;;;;;;;;;;;;;;-142.75;100.00;78482.13;5094663;28;19912;-68
2022/10/11 06:09:36;;;;;;;;;;;;;;;-142.75;100.00;78486.06;5084908;28;20464;-68
2022/10/11 06:12:01;;;;;;;;;;;;;;;-142.75;100.00;78484.09;5074443;28;20003;-67
2022/10/11 06:14:27;;;;;;;;;;;;;;;-142.75;100.00;78476.22;5084087;28;20027;-68
2022/10/11 06:16:52;;;;;;;;;;;;;;;-142.75;100.00;78472.28;5065542;28;19916;-68
2022/10/11 06:19:17;;;;;;;;;;;;;;;-142.75;100.00;78470.31;5066824;28;19913;-68
2022/10/11 06:21:44;;;;;;;;;;;;;;;-142.75;100.00;78460.47;5064709;28;19946;-69
2022/10/11 06:24:09;;;;;;;;;;;;;;;-142.75;100.00;78454.56;5084083;28;19912;-68
2022/10/11 06:26:35;;;;;;;;;;;;;;;-142.75;100.00;78448.66;5065624;28;19913;-69
2022/10/11 06:29:00;;;;;;;;;;;;;;;-142.75;100.00;78446.69;5081423;28;20407;-68
2022/10/11 06:31:25;;;;;;;;;;;;;;;-142.75;100.00;78444.72;5084143;28;19912;-68
2022/10/11 06:33:50;;;;;;;;;;;;;;;-142.75;100.00;78430.94;5084045;28;19944;-69
2022/10/11 06:36:16;;;;;;;;;;;;;;;-142.75;100.00;78432.91;5082346;28;19986;-69
2022/10/11 06:38:42;;;;;;;;;;;;;;;-142.75;100.00;78425.03;5083477;28;19939;-68
2022/10/11 06:41:09;;;;;;;;;;;;;;;-142.75;100.00;78415.19;5082676;28;20374;-68
2022/10/11 06:43:34;;;;;;;;;;;;;;;-142.75;100.00;78407.31;5083841;28;19923;-66
2022/10/11 06:45:59;;;;;;;;;;;;;;;-142.75;100.00;78417.16;5065653;28;19917;-69
2022/10/11 06:48:24;;;;;;;;;;;;;;;-142.75;100.00;78405.34;5083832;28;19916;-68
2022/10/11 06:50:50;;;;;;;;;;;;;;;-142.75;100.00;78401.38;5093976;28;19958;-69
2022/10/11 06:53:15;;;;;;;;;;;;;;;-142.75;100.00;78381.69;5075677;28;20290;-68
2022/10/11 06:55:40;;;;;;;;;;;;;;;-142.75;100.00;78373.81;5075716;28;19931;-68
2022/10/11 06:58:05;;;;;;;;;;;;;;;-142.75;100.00;78369.88;5093267;28;20293;-69
2022/10/11 07:00:30;;;;;;;;;;;;;;;-142.75;100.00;78354.13;5093756;28;19920;-69
2022/10/11 07:02:56;;;;;;;;;;;;;;;-142.75;100.00;78328.53;5075502;28;20011;-69
2022/10/11 07:05:21;;;;;;;;;;;;;;;-142.75;100.00;78304.91;5082934;28;19916;-69
2022/10/11 07:07:46;;;;;;;;;;;;;;;-142.75;100.00;78283.22;5080862;28;20289;-68
2022/10/11 07:10:11;;;;;;;;;;;;;;;-142.75;100.00;78267.47;5090272;28;20366;-69
2022/10/11 07:12:36;;;;;;;;;;;;;;;-142.75;100.00;78263.53;5066282;28;19912;-69
2022/10/11 07:15:02;;;;;;;;;;;;;;;-142.75;100.00;78247.78;5085577;28;19913;-68
2022/10/11 07:17:27;;;;;;;;;;;;;;;-142.75;100.00;78230.06;5079912;28;19916;-69
2022/10/11 07:19:52;;;;;;;;;;;;;;;-142.75;100.00;78224.16;5084643;28;19912;-69
2022/10/11 07:22:17;;;;;;;;;;;;;;;-142.75;100.00;78206.44;5083543;28;20007;-69
2022/10/11 07:24:43;;;;;;;;;;;;;;;-142.75;100.00;78188.72;5084576;28;19999;-69
2022/10/11 07:27:08;;;;;;;;;;;;;;;-142.75;100.00;78170.97;5056021;28;19913;-69
2022/10/11 07:29:33;;;;;;;;;;;;;;;-142.75;100.00;78153.25;5075701;28;19966;-69
2022/10/11 07:31:58;;;;;;;;;;;;;;;-142.75;100.00;78133.56;5073303;28;20336;-69
2022/10/11 07:34:23;;;;;;;;;;;;;;;-142.75;100.00;78113.88;5062708;28;19912;-69
2022/10/11 07:36:49;;;;;;;;;;;;;;;-142.75;100.00;78082.38;5057760;28;19921;-69
2022/10/11 07:39:14;;;;;;;;;;;;;;;-142.75;100.00;78039.03;5075118;28;19912;-69
2022/10/11 07:41:39;;;;;;;;;;;;;;;-142.75;100.00;77999.66;5086654;28;20518;-70
2022/10/11 07:44:04;;;;;;;;;;;;;;;-142.75;100.00;77974.06;5079506;28;20400;-72
2022/10/11 07:46:30;;;;;;;;;;;;;;;-142.75;100.00;77936.66;5083927;28;19916;-68
2022/10/11 07:48:55;;;;;;;;;;;;;;;-142.75;100.00;77909.06;5084059;28;20285;-69
2022/10/11 07:51:21;;;;;;;;;;;;;;;-142.75;100.00;77893.31;5083082;28;19917;-68
2022/10/11 07:53:51;;;;;;;;;;;;;;;-142.75;100.00;77850.00;5084083;28;19912;-69
2022/10/11 07:56:17;;;;;;;;;;;;;;;-142.75;100.00;77822.44;5084593;28;19927;-67
2022/10/11 07:58:43;;;;;;;;;;;;;;;-142.75;100.00;77775.19;5080150;28;20276;-69
2022/10/11 08:01:08;;;;;;;;;;;;;;;-142.75;100.00;77747.63;5081493;28;19913;-69
2022/10/11 08:03:34;;;;;;;;;;;;;;;-142.75;100.00;77704.28;5082871;28;19965;-68
2022/10/11 08:06:00;;;;;;;;;;;;;;;-142.75;100.00;77696.41;5086238;28;20046;-68
2022/10/11 08:08:25;;;;;;;;;;;;;;;-142.75;100.00;77672.78;5063807;28;20043;-66
2022/10/11 08:10:50;;;;;;;;;;;;;;;-142.75;100.00;77639.31;5081009;28;20000;-69
2022/10/11 08:13:16;;;;;;;;;;;;;;;-142.75;100.00;77625.53;5065592;28;19919;-69
2022/10/11 08:15:41;;;;;;;;;;;;;;;-142.75;100.00;77584.19;5092495;28;20484;-69
2022/10/11 08:18:06;;;;;;;;;;;;;;;-142.75;100.00;77586.16;5073947;28;19965;-71
2022/10/11 08:20:32;;;;;;;;;;;;;;;-142.75;100.00;77590.09;5074163;28;19919;-70
2022/10/11 08:22:57;;;;;;;;;;;;;;;-142.75;100.00;77570.41;5092350;28;20012;-71
2022/10/11 08:25:22;;;;;;;;;;;;;;;-142.75;100.00;77552.69;5092299;28;20050;-69
2022/10/11 08:27:47;;;;;;;;;;;;;;;-142.75;100.00;77552.69;5091936;28;19951;-70
2022/10/11 08:30:12;;;;;;;;;;;;;;;-142.75;100.00;77566.47;5092325;28;19918;-70
2022/10/11 08:32:38;;;;;;;;;;;;;;;-142.75;100.00;77550.72;5092310;28;19919;-70
2022/10/11 08:35:03;;;;;;;;;;;;;;;-142.75;100.00;77531.03;5092210;28;19918;-69
2022/10/11 08:37:28;;;;;;;;;;;;;;;-142.75;100.00;77485.75;5073793;28;19916;-70
2022/10/11 08:39:53;;;;;;;;;;;;;;;-142.75;100.00;77468.03;5092055;28;19919;-69
2022/10/11 08:42:37;;;;;;;;;;;;;;;-142.75;100.00;77470.00;5092084;28;19958;-70
2022/10/11 08:45:06;;;;;;;;;;;;;;;-142.75;100.00;77442.41;5092133;28;20003;-70
2022/10/11 08:47:35;;;;;;;;;;;;;;;-142.75;100.00;77481.81;5091920;28;19916;-70
2022/10/11 08:50:02;;;;;;;;;;;;;;;-142.75;100.00;77440.44;5095421;28;19962;-69
2022/10/11 08:52:40;;;;;;;;;;;;;;;-142.75;100.00;77436.50;5096247;28;19912;-70
2022/10/11 08:55:10;;;;;;;;;;;;;;;-142.75;100.00;77422.72;5077969;28;19916;-69
2022/10/11 08:57:37;;;;;;;;;;;;;;;-142.75;100.00;77406.97;5095986;28;20010;-70
2022/10/11 09:00:04;;;;;;;;;;;;;;;-142.75;100.00;77379.41;5095948;28;19912;-69
2022/10/11 09:02:45;;;;;;;;;;;;;;;-142.75;100.00;77340.03;5096055;28;20293;-69
2022/10/11 09:05:14;;;;;;;;;;;;;;;-142.75;100.00;77294.75;5095791;28;20022;-70
2022/10/11 09:07:39;;;;;;;;;;;;;;;-142.75;100.00;77267.19;5095687;28;19912;-69
2022/10/11 09:10:07;;;;;;;;;;;;;;;-142.75;100.00;77267.19;5095875;28;20397;-68
2022/10/11 09:12:38;;;;;;;;;;;;;;;-142.75;100.00;77294.75;5075600;28;19916;-71
2022/10/11 09:15:14;;;;;;;;;;;;;;;-142.75;100.00;77280.97;5075613;28;20286;-69
2022/10/11 09:17:57;;;;;;;;;;;;;;;-142.75;100.00;77304.59;5063363;28;19921;-70
2022/10/11 09:20:41;;;;;;;;;;;;;;;-142.75;100.00;77284.91;5084983;28;20011;-70
2022/10/11 09:23:25;;;;;;;;;;;;;;;-142.75;100.00;77257.34;5085713;28;19995;-69
2022/10/11 09:26:09;;;;;;;;;;;;;;;-142.75;100.00;77271.13;5084835;28;19936;-69
2022/10/11 09:28:49;;;;;;;;;;;;;;;-142.75;99.60;77239.63;5093803;28;19912;-69
2022/10/11 09:31:15;;;;;;;;;;;;;;;-142.75;100.00;77221.91;5094391;28;19912;-67
2022/10/11 09:33:44;;;;;;;;;;;;;;;-142.75;97.43;77223.88;5084543;28;20063;-67
2022/10/11 09:36:23;;;;;;;;;;;;;;;-142.75;96.94;77267.19;5083818;28;19960;-67
2022/10/11 09:38:53;;;;;;;;;;;;;;;-142.75;94.20;77229.78;5065578;28;19920;-66
2022/10/11 09:41:24;;;;;;;;;;;;;;;-142.75;93.34;77231.75;5085157;28;19999;-68
2022/10/11 09:43:51;;;;;;;;;;;;;;;-142.75;96.31;77206.16;5079909;28;19917;-66
2022/10/11 09:46:19;;;;;;;;;;;;;;;-142.75;89.15;77196.31;5075023;28;19912;-68
2022/10/11 09:48:44;;;;;;;;;;;;;;;-142.75;93.43;77172.69;5074683;28;19973;-70
2022/10/11 09:51:13;;;;;;;;;;;;;;;-142.75;94.91;77182.53;5079485;28;19916;-70
2022/10/11 09:54:09;;;;;;;;;;;;;;;-142.75;85.18;77178.59;5085137;28;19916;-69
2022/10/11 09:56:40;;;;;;;;;;;;;;;-142.75;87.88;77149.06;5064392;28;19924;-66
2022/10/11 09:59:16;;;;;;;;;;;;;;;-142.75;81.90;77113.63;5089384;28;19919;-70
2022/10/11 10:01:41;;;;;;;;;;;;;;;-142.75;83.22;77091.97;5093531;28;19924;-69
2022/10/11 10:04:10;;;;;;;;;;;;;;;-142.75;80.93;77060.47;5114062;22;19973;-64
2022/10/11 10:06:36;;;;;;;;;;;;;;;-142.75;83.92;77060.47;5092355;28;20472;-64
2022/10/11 10:09:23;;;;;;;;;;;;;;;-142.75;85.39;77064.41;5083800;28;20002;-64
2022/10/11 10:11:49;;;;;;;;;;;;;;;-142.75;81.56;77056.53;5084414;28;20340;-65
2022/10/11 10:14:19;;;;;;;;;;;;;;;-142.75;77.90;77028.97;5086861;28;19924;-64
2022/10/11 10:16:44;;;;;;;;;;;;;;;-142.75;77.13;77034.88;5073161;28;20386;-64
2022/10/11 10:19:17;;;;;;;;;;;;;;;-142.75;76.58;77009.28;5073385;28;19920;-64
2022/10/11 10:21:44;;;;;;;;;;;;;;;-142.75;76.91;77011.25;5073815;28;19960;-64
2022/10/11 10:24:34;;;;;;;;;;;;;;;-142.75;78.06;77011.25;5073026;28;19923;-64
2022/10/11 10:27:09;;;;;;;;;;;;;;;-142.75;72.91;76979.75;5073031;28;19913;-64
2022/10/11 10:29:35;;;;;;;;;;;;;;;-142.75;71.18;76916.75;5072880;28;19917;-64
2022/10/11 10:32:20;;;;;;;;;;;;;;;-142.75;71.11;76922.66;5073596;28;20394;-64
2022/10/11 10:34:48;;;;;;;;;;;;;;;-142.75;72.41;76924.63;5072537;28;20013;-64
2022/10/11 10:37:28;;;;;;;;;;;;;;;-142.75;71.47;76922.66;5070463;28;19921;-64
2022/10/11 10:39:56;;;;;;;;;;;;;;;-142.75;69.21;76893.13;5073459;28;19919;-64
2022/10/11 10:42:21;;;;;;;;;;;;;;;-142.75;68.58;76906.91;5072825;28;19922;-64
2022/10/11 10:44:50;;;;;;;;;;;;;;;-142.75;64.85;76822.25;5073343;28;20011;-66
2022/10/11 10:47:19;;;;;;;;;;;;;;;-142.75;63.17;76822.25;5073068;28;19919;-65
2022/10/11 10:49:53;;;;;;;;;;;;;;;-142.75;64.51;76834.06;5073384;28;20047;-64
2022/10/11 10:52:24;;;;;;;;;;;;;;;-142.75;68.77;76838.00;5073427;28;19957;-65
2022/10/11 10:54:55;;;;;;;;;;;;;;;-142.75;68.39;76832.09;5073221;28;19920;-65
2022/10/11 10:57:26;;;;;;;;;;;;;;;-142.75;67.87;76910.84;5072986;28;19916;-65
2022/10/11 10:59:52;;;;;;;;;;;;;;;-142.75;75.25;77038.81;5072940;28;19919;-64
2022/10/11 11:02:40;;;;;;;;;;;;;;;-142.75;73.07;77072.28;5073249;28;19913;-64
2022/10/11 11:05:17;;;;;;;;;;;;;;;-142.75;79.23;77070.31;5072794;28;19916;-64
2022/10/11 11:07:45;;;;;;;;;;;;;;;-142.75;79.94;76985.66;5069921;28;19951;-66
2022/10/11 11:10:31;;;;;;;;;;;;;;;-142.75;69.69;76897.06;5072755;28;19913;-65
2022/10/11 11:12:59;;;;;;;;;;;;;;;-142.75;67.50;76806.50;5072756;28;20408;-65
2022/10/11 11:15:32;;;;;;;;;;;;;;;-142.75;67.61;76838.00;5072594;28;19925;-65
2022/10/11 11:18:09;;;;;;;;;;;;;;;-142.75;67.11;76824.22;5069120;28;19931;-65
2022/10/11 11:20:34;;;;;;;;;;;;;;;-142.75;66.24;76834.06;5070558;28;20003;-65
2022/10/11 11:23:19;;;;;;;;;;;;;;;-142.75;69.44;76763.22;5054655;28;20016;-65
2022/10/11 11:25:44;;;;;;;;;;;;;;;-142.75;69.32;76881.31;5071812;28;19918;-65
2022/10/11 11:28:25;;;;;;;;;;;;;;;-142.75;73.99;76914.78;5071223;28;20613;-65
2022/10/11 11:31:02;;;;;;;;;;;;;;;-142.75;75.15;76975.81;5070746;28;19920;-65
2022/10/11 11:33:34;;;;;;;;;;;;;;;-142.75;76.23;77017.16;5054685;28;19923;-65
2022/10/11 11:36:04;;;;;;;;;;;;;;;-142.75;78.82;77070.31;5071358;28;19916;-65
2022/10/11 11:38:47;;;;;;;;;;;;;;;-142.75;81.39;77141.19;5072522;28;20389;-65
2022/10/11 11:41:23;;;;;;;;;;;;;;;-142.75;86.13;77172.69;5072765;28;19919;-65
2022/10/11 11:43:57;;;;;;;;;;;;;;;-142.75;88.22;77239.63;5071970;28;19923;-65
2022/10/11 11:46:34;;;;;;;;;;;;;;;-142.75;87.33;77227.81;5072001;28;19912;-64
2022/10/11 11:49:02;;;;;;;;;;;;;;;-142.75;87.64;77253.41;5067973;28;19946;-65
2022/10/11 11:51:37;;;;;;;;;;;;;;;-142.75;93.40;77275.06;5071522;28;19921;-65
2022/10/11 11:54:04;;;;;;;;;;;;;;;-142.75;91.31;77174.66;5071533;28;19916;-67
2022/10/11 11:56:30;;;;;;;;;;;;;;;-142.75;86.80;77080.16;5071268;28;19936;-65
2022/10/11 11:59:04;;;;;;;;;;;;;;;-142.75;78.70;77066.38;5070652;28;20035;-65
2022/10/11 12:01:34;;;;;;;;;;;;;;;-142.75;82.18;77048.66;5068934;28;20382;-66
2022/10/11 12:04:19;;;;;;;;;;;;;;;-142.75;77.77;76995.50;5072040;28;19917;-65
2022/10/11 12:06:57;;;;;;;;;;;;;;;-142.75;76.36;76934.47;5071047;28;20712;-65
2022/10/11 12:09:22;;;;;;;;;;;;;;;-142.75;76.47;76922.66;5071504;28;19912;-65
2022/10/11 12:11:55;;;;;;;;;;;;;;;-142.75;75.88;76897.06;5071744;28;19973;-66
2022/10/11 12:14:33;;;;;;;;;;;;;;;-142.75;74.50;76863.59;5051785;28;19916;-65
2022/10/11 12:17:08;;;;;;;;;;;;;;;-142.75;73.65;76865.56;5051450;28;19920;-65
2022/10/11 12:19:34;;;;;;;;;;;;;;;-142.75;71.86;76855.72;5051752;28;19913;-65
2022/10/11 12:22:15;;;;;;;;;;;;;;;-142.75;72.01;76830.13;5060349;28;19922;-65
2022/10/11 12:24:53;;;;;;;;;;;;;;;-142.75;71.95;76820.28;5071147;28;19958;-65
2022/10/11 12:27:36;;;;;;;;;;;;;;;-142.75;71.66;76810.44;5071365;28;19920;-65